Terminal Aerodrome Forecast
Issued by NWS

Home | Current Version | Previous Version | Text Only | Print | Product List | Glossary On
Versions: 1 2 3 4 5 6 7 8 9 10 11 12 13 14 15 16
000
FTUS43 KEAX 282100 AAA
TAFMKC
TAF AMD
KMKC 282140Z 2822/0118 14005KT 4SM -SN BKN019 BKN030 OVC040
     FM010000 15004KT P6SM OVC020
     FM010600 18003KT 3SM -SN OVC020
     FM011400 28005KT 2SM -SN OVC015=

USA.gov is the U.S. government's official web portal to all federal, state and local government web resources and services.